sensor_id;sensor_type;location;lat;lon;timestamp;pressure;altitude;pressure_sealevel;temperature;humidity
26859;BME280;14429;48.346;16.338;2023-05-22T00:00:14;99667.81;;;20.28;59.89
26859;BME280;14429;48.346;16.338;2023-05-22T00:02:40;99669.38;;;20.39;59.74
26859;BME280;14429;48.346;16.338;2023-05-22T00:05:08;99659.78;;;20.60;59.12
26859;BME280;14429;48.346;16.338;2023-05-22T00:07:33;99662.50;;;20.68;58.76
26859;BME280;14429;48.346;16.338;2023-05-22T00:09:59;99662.84;;;20.73;58.42
26859;BME280;14429;48.346;16.338;2023-05-22T00:12:24;99670.63;;;20.76;58.22
26859;BME280;14429;48.346;16.338;2023-05-22T00:14:49;99665.88;;;20.78;58.34
26859;BME280;14429;48.346;16.338;2023-05-22T00:17:15;99663.53;;;20.75;58.33
26859;BME280;14429;48.346;16.338;2023-05-22T00:19:40;99663.53;;;20.75;58.23
26859;BME280;14429;48.346;16.338;2023-05-22T00:22:10;99664.19;;;20.69;58.17
26859;BME280;14429;48.346;16.338;2023-05-22T00:24:36;99661.47;;;20.61;58.28
26859;BME280;14429;48.346;16.338;2023-05-22T00:27:02;99662.31;;;20.61;58.51
26859;BME280;14429;48.346;16.338;2023-05-22T00:29:27;99665.22;;;20.60;58.54
26859;BME280;14429;48.346;16.338;2023-05-22T00:31:53;99663.84;;;20.56;58.62
26859;BME280;14429;48.346;16.338;2023-05-22T00:34:18;99654.19;;;20.53;58.67
26859;BME280;14429;48.346;16.338;2023-05-22T00:36:43;99654.88;;;20.63;58.57
26859;BME280;14429;48.346;16.338;2023-05-22T00:39:10;99648.09;;;20.75;58.01
26859;BME280;14429;48.346;16.338;2023-05-22T00:41:36;99655.03;;;20.78;58.12
26859;BME280;14429;48.346;16.338;2023-05-22T00:44:01;99651.16;;;20.80;57.87
26859;BME280;14429;48.346;16.338;2023-05-22T00:46:27;99651.97;;;20.80;58.02
26859;BME280;14429;48.346;16.338;2023-05-22T00:48:52;99657.41;;;20.80;57.62
26859;BME280;14429;48.346;16.338;2023-05-22T00:51:19;99656.91;;;20.69;57.84
26859;BME280;14429;48.346;16.338;2023-05-22T00:53:45;99658.53;;;20.23;59.46
26859;BME280;14429;48.346;16.338;2023-05-22T00:56:13;99666.94;;;20.04;59.79
26859;BME280;14429;48.346;16.338;2023-05-22T00:58:39;99664.31;;;19.21;64.20
26859;BME280;14429;48.346;16.338;2023-05-22T01:01:04;99658.72;;;19.81;61.54
26859;BME280;14429;48.346;16.338;2023-05-22T01:03:30;99659.00;;;20.11;60.55
26859;BME280;14429;48.346;16.338;2023-05-22T01:05:55;99654.59;;;20.25;59.75
26859;BME280;14429;48.346;16.338;2023-05-22T01:08:21;99646.88;;;20.38;59.29
26859;BME280;14429;48.346;16.338;2023-05-22T01:10:53;99650.94;;;20.42;59.01
26859;BME280;14429;48.346;16.338;2023-05-22T01:13:26;99647.00;;;20.37;59.06
26859;BME280;14429;48.346;16.338;2023-05-22T01:15:57;99651.06;;;20.33;59.20
26859;BME280;14429;48.346;16.338;2023-05-22T01:18:31;99657.81;;;20.21;59.16
26859;BME280;14429;48.346;16.338;2023-05-22T01:21:04;99657.28;;;20.02;59.94
26859;BME280;14429;48.346;16.338;2023-05-22T01:23:53;99666.09;;;19.38;62.51
26859;BME280;14429;48.346;16.338;2023-05-22T01:30:00;99665.53;;;19.02;63.73
26859;BME280;14429;48.346;16.338;2023-05-22T01:32:30;99672.94;;;18.83;64.78
26859;BME280;14429;48.346;16.338;2023-05-22T01:35:00;99668.75;;;19.30;63.26
26859;BME280;14429;48.346;16.338;2023-05-22T01:37:26;99682.13;;;18.72;63.58
26859;BME280;14429;48.346;16.338;2023-05-22T01:39:52;99680.59;;;18.87;63.93
26859;BME280;14429;48.346;16.338;2023-05-22T01:42:19;99685.25;;;19.19;63.41
26859;BME280;14429;48.346;16.338;2023-05-22T01:44:44;99686.75;;;19.47;62.62
26859;BME280;14429;48.346;16.338;2023-05-22T01:47:11;99680.78;;;19.69;61.91
26859;BME280;14429;48.346;16.338;2023-05-22T01:49:40;99679.88;;;19.77;61.43
26859;BME280;14429;48.346;16.338;2023-05-22T01:52:11;99676.22;;;19.36;60.15
26859;BME280;14429;48.346;16.338;2023-05-22T01:54:43;99673.00;;;19.66;61.01
26859;BME280;14429;48.346;16.338;2023-05-22T01:57:15;99669.41;;;19.82;61.02
26859;BME280;14429;48.346;16.338;2023-05-22T01:59:44;99680.63;;;20.03;60.37
26859;BME280;14429;48.346;16.338;2023-05-22T02:02:12;99666.75;;;20.06;60.10
26859;BME280;14429;48.346;16.338;2023-05-22T02:04:43;99665.28;;;20.19;59.71
26859;BME280;14429;48.346;16.338;2023-05-22T02:07:11;99669.16;;;20.17;59.67
26859;BME280;14429;48.346;16.338;2023-05-22T02:09:37;99665.94;;;20.13;59.49
26859;BME280;14429;48.346;16.338;2023-05-22T02:12:05;99662.72;;;20.10;59.73
26859;BME280;14429;48.346;16.338;2023-05-22T02:14:31;99667.72;;;19.81;59.77
26859;BME280;14429;48.346;16.338;2023-05-22T02:16:56;99670.88;;;19.77;59.63
26859;BME280;14429;48.346;16.338;2023-05-22T02:19:22;99663.72;;;20.09;59.95
26859;BME280;14429;48.346;16.338;2023-05-22T02:21:48;99658.34;;;20.25;59.44
26859;BME280;14429;48.346;16.338;2023-05-22T02:24:14;99663.78;;;20.32;59.04
26859;BME280;14429;48.346;16.338;2023-05-22T02:26:40;99653.63;;;20.34;59.03
26859;BME280;14429;48.346;16.338;2023-05-22T02:29:05;99654.97;;;20.23;59.00
26859;BME280;14429;48.346;16.338;2023-05-22T02:31:30;99651.88;;;20.18;59.37
26859;BME280;14429;48.346;16.338;2023-05-22T02:33:56;99654.97;;;20.23;59.10
26859;BME280;14429;48.346;16.338;2023-05-22T02:36:21;99655.50;;;20.34;58.88
26859;BME280;14429;48.346;16.338;2023-05-22T02:38:48;99645.19;;;20.37;58.75
26859;BME280;14429;48.346;16.338;2023-05-22T02:41:14;99654.28;;;20.28;58.88
26859;BME280;14429;48.346;16.338;2023-05-22T02:43:39;99654.28;;;20.28;58.84
26859;BME280;14429;48.346;16.338;2023-05-22T02:46:05;99648.88;;;20.36;58.64
26859;BME280;14429;48.346;16.338;2023-05-22T02:48:30;99644.47;;;20.35;58.64
26859;BME280;14429;48.346;16.338;2023-05-22T02:50:55;99647.88;;;20.37;58.46
26859;BME280;14429;48.346;16.338;2023-05-22T02:53:21;99641.13;;;20.41;58.55
26859;BME280;14429;48.346;16.338;2023-05-22T02:55:48;99636.69;;;20.40;58.39
26859;BME280;14429;48.346;16.338;2023-05-22T02:58:13;99634.34;;;20.29;58.27
26859;BME280;14429;48.346;16.338;2023-05-22T03:00:38;99631.56;;;20.06;58.68
26859;BME280;14429;48.346;16.338;2023-05-22T03:03:04;99634.13;;;20.15;58.88
26859;BME280;14429;48.346;16.338;2023-05-22T03:05:30;99645.94;;;20.14;59.02
26859;BME280;14429;48.346;16.338;2023-05-22T03:07:55;99637.19;;;20.20;58.95
26859;BME280;14429;48.346;16.338;2023-05-22T03:10:22;99642.78;;;20.34;58.72
26859;BME280;14429;48.346;16.338;2023-05-22T03:12:50;99640.59;;;20.22;58.48
26859;BME280;14429;48.346;16.338;2023-05-22T03:15:15;99640.25;;;19.76;59.09
26859;BME280;14429;48.346;16.338;2023-05-22T03:17:41;99644.06;;;20.07;59.43
26859;BME280;14429;48.346;16.338;2023-05-22T03:20:07;99630.59;;;20.23;58.80
26859;BME280;14429;48.346;16.338;2023-05-22T03:22:33;99646.16;;;20.21;58.83
26859;BME280;14429;48.346;16.338;2023-05-22T03:24:58;99642.78;;;20.19;59.00
26859;BME280;14429;48.346;16.338;2023-05-22T03:27:24;99643.97;;;20.24;58.85
26859;BME280;14429;48.346;16.338;2023-05-22T03:29:51;99634.47;;;20.20;58.84
26859;BME280;14429;48.346;16.338;2023-05-22T03:32:16;99636.84;;;20.15;58.83
26859;BME280;14429;48.346;16.338;2023-05-22T03:34:41;99645.78;;;20.00;59.02
26859;BME280;14429;48.346;16.338;2023-05-22T03:37:07;99650.16;;;20.01;58.98
26859;BME280;14429;48.346;16.338;2023-05-22T03:39:32;99642.78;;;20.19;59.01
26859;BME280;14429;48.346;16.338;2023-05-22T03:41:57;99643.44;;;20.28;58.44
26859;BME280;14429;48.346;16.338;2023-05-22T03:44:23;99640.59;;;20.30;58.60
26859;BME280;14429;48.346;16.338;2023-05-22T03:46:50;99640.09;;;20.34;58.44
26859;BME280;14429;48.346;16.338;2023-05-22T03:49:15;99642.78;;;20.34;58.18
26859;BME280;14429;48.346;16.338;2023-05-22T03:51:40;99646.00;;;20.30;58.20
26859;BME280;14429;48.346;16.338;2023-05-22T03:54:06;99641.75;;;20.27;58.34
26859;BME280;14429;48.346;16.338;2023-05-22T03:56:31;99650.22;;;20.25;58.40
26859;BME280;14429;48.346;16.338;2023-05-22T03:58:57;99646.16;;;20.21;58.66
26859;BME280;14429;48.346;16.338;2023-05-22T04:01:22;99650.19;;;20.17;58.49
26859;BME280;14429;48.346;16.338;2023-05-22T04:03:49;99653.72;;;19.36;60.57
26859;BME280;14429;48.346;16.338;2023-05-22T04:06:14;99656.09;;;19.64;59.63
26859;BME280;14429;48.346;16.338;2023-05-22T04:08:40;99665.84;;;19.24;60.61
26859;BME280;14429;48.346;16.338;2023-05-22T04:11:05;99660.47;;;19.32;60.83
26859;BME280;14429;48.346;16.338;2023-05-22T04:13:30;99668.28;;;19.68;60.44
26859;BME280;14429;48.346;16.338;2023-05-22T04:15:56;99666.56;;;19.59;59.53
26859;BME280;14429;48.346;16.338;2023-05-22T04:18:21;99667.66;;;19.73;59.98
26859;BME280;14429;48.346;16.338;2023-05-22T04:20:48;99663.00;;;19.91;59.64
26859;BME280;14429;48.346;16.338;2023-05-22T04:23:14;99660.81;;;19.95;59.42
26859;BME280;14429;48.346;16.338;2023-05-22T04:25:40;99666.41;;;20.01;59.22
26859;BME280;14429;48.346;16.338;2023-05-22T04:28:05;99658.00;;;20.12;59.15
26859;BME280;14429;48.346;16.338;2023-05-22T04:30:31;99658.03;;;20.35;58.24
26859;BME280;14429;48.346;16.338;2023-05-22T04:32:56;99654.81;;;20.48;57.70
26859;BME280;14429;48.346;16.338;2023-05-22T04:35:25;99656.72;;;20.55;57.64
26859;BME280;14429;48.346;16.338;2023-05-22T04:37:51;99649.63;;;20.70;57.16
26859;BME280;14429;48.346;16.338;2023-05-22T04:40:17;99652.16;;;20.79;56.80
26859;BME280;14429;48.346;16.338;2023-05-22T04:42:42;99649.28;;;20.88;56.27
26859;BME280;14429;48.346;16.338;2023-05-22T04:45:08;99651.50;;;20.93;56.01
26859;BME280;14429;48.346;16.338;2023-05-22T04:47:34;99650.28;;;21.03;55.81
26859;BME280;14429;48.346;16.338;2023-05-22T04:49:59;99653.28;;;21.47;56.56
26859;BME280;14429;48.346;16.338;2023-05-22T04:52:25;99642.41;;;21.47;55.02
26859;BME280;14429;48.346;16.338;2023-05-22T04:54:51;99642.25;;;21.41;54.41
26859;BME280;14429;48.346;16.338;2023-05-22T04:57:17;99636.97;;;21.47;54.31
26859;BME280;14429;48.346;16.338;2023-05-22T04:59:43;99640.16;;;21.59;54.16
26859;BME280;14429;48.346;16.338;2023-05-22T05:02:08;99639.81;;;21.99;53.88
26859;BME280;14429;48.346;16.338;2023-05-22T05:04:34;99645.75;;;22.03;52.89
26859;BME280;14429;48.346;16.338;2023-05-22T05:06:59;99646.97;;;21.92;53.27
26859;BME280;14429;48.346;16.338;2023-05-22T05:09:24;99644.59;;;21.97;53.00
26859;BME280;14429;48.346;16.338;2023-05-22T05:11:51;99653.03;;;22.10;52.55
26859;BME280;14429;48.346;16.338;2023-05-22T05:14:17;99641.88;;;22.05;52.74
26859;BME280;14429;48.346;16.338;2023-05-22T05:16:42;99644.34;;;22.15;52.57
26859;BME280;14429;48.346;16.338;2023-05-22T05:19:08;99645.28;;;21.91;52.84
26859;BME280;14429;48.346;16.338;2023-05-22T05:21:33;99650.69;;;21.99;52.96
26859;BME280;14429;48.346;16.338;2023-05-22T05:23:59;99644.66;;;22.64;52.64
26859;BME280;14429;48.346;16.338;2023-05-22T05:26:25;99651.06;;;22.48;51.32
26859;BME280;14429;48.346;16.338;2023-05-22T05:28:51;99644.56;;;22.35;51.53
26859;BME280;14429;48.346;16.338;2023-05-22T05:31:17;99642.66;;;22.88;52.19
26859;BME280;14429;48.346;16.338;2023-05-22T05:33:42;99636.91;;;22.83;50.73
26859;BME280;14429;48.346;16.338;2023-05-22T05:36:08;99641.94;;;22.64;50.76
26859;BME280;14429;48.346;16.338;2023-05-22T05:38:33;99645.81;;;23.13;52.05
26859;BME280;14429;48.346;16.338;2023-05-22T05:40:59;99638.00;;;23.10;50.35
26859;BME280;14429;48.346;16.338;2023-05-22T05:43:24;99646.53;;;22.63;50.84
26859;BME280;14429;48.346;16.338;2023-05-22T05:45:51;99634.31;;;23.03;51.74
26859;BME280;14429;48.346;16.338;2023-05-22T05:48:16;99643.16;;;23.05;52.31
26859;BME280;14429;48.346;16.338;2023-05-22T05:53:07;99654.00;;;22.91;50.01
26859;BME280;14429;48.346;16.338;2023-05-22T05:55:33;99649.28;;;23.58;51.20
26859;BME280;14429;48.346;16.338;2023-05-22T05:57:58;99646.16;;;23.61;51.35
26859;BME280;14429;48.346;16.338;2023-05-22T06:00:24;99652.91;;;23.79;48.42
26859;BME280;14429;48.346;16.338;2023-05-22T06:02:51;99644.00;;;23.85;49.53
26859;BME280;14429;48.346;16.338;2023-05-22T06:05:17;99637.94;;;24.04;48.68
26859;BME280;14429;48.346;16.338;2023-05-22T06:07:42;99638.59;;;24.06;49.32
26859;BME280;14429;48.346;16.338;2023-05-22T06:10:09;99636.63;;;24.00;48.04
26859;BME280;14429;48.346;16.338;2023-05-22T06:12:34;99638.84;;;23.61;48.37
26859;BME280;14429;48.346;16.338;2023-05-22T06:15:00;99637.94;;;23.32;48.95
26859;BME280;14429;48.346;16.338;2023-05-22T06:17:25;99633.16;;;23.34;51.36
26859;BME280;14429;48.346;16.338;2023-05-22T06:19:52;99630.88;;;23.24;49.51
26859;BME280;14429;48.346;16.338;2023-05-22T06:22:17;99635.19;;;23.54;51.30
26859;BME280;14429;48.346;16.338;2023-05-22T06:24:42;99624.09;;;23.70;49.77
26859;BME280;14429;48.346;16.338;2023-05-22T06:27:08;99636.44;;;24.15;50.13
26859;BME280;14429;48.346;16.338;2023-05-22T06:29:33;99629.09;;;24.02;49.65
26859;BME280;14429;48.346;16.338;2023-05-22T06:31:59;99626.03;;;24.60;48.73
26859;BME280;14429;48.346;16.338;2023-05-22T06:34:24;99622.47;;;24.60;48.11
26859;BME280;14429;48.346;16.338;2023-05-22T06:36:51;99622.22;;;24.75;48.40
26859;BME280;14429;48.346;16.338;2023-05-22T06:39:17;99623.13;;;24.41;47.47
26859;BME280;14429;48.346;16.338;2023-05-22T06:41:43;99635.47;;;24.08;49.90
26859;BME280;14429;48.346;16.338;2023-05-22T06:44:08;99631.56;;;23.97;48.04
26859;BME280;14429;48.346;16.338;2023-05-22T06:46:34;99626.72;;;24.27;50.52
26859;BME280;14429;48.346;16.338;2023-05-22T06:48:59;99638.91;;;23.82;48.51
26859;BME280;14429;48.346;16.338;2023-05-22T06:51:25;99632.50;;;24.04;47.96
26859;BME280;14429;48.346;16.338;2023-05-22T06:53:52;99626.75;;;24.48;48.56
26859;BME280;14429;48.346;16.338;2023-05-22T06:56:17;99628.84;;;23.97;47.98
26859;BME280;14429;48.346;16.338;2023-05-22T06:58:43;99641.94;;;23.58;48.90
26859;BME280;14429;48.346;16.338;2023-05-22T07:01:08;99644.81;;;23.28;49.70
26859;BME280;14429;48.346;16.338;2023-05-22T07:03:34;99632.41;;;23.97;49.67
26859;BME280;14429;48.346;16.338;2023-05-22T07:05:59;99636.31;;;24.79;48.39
26859;BME280;14429;48.346;16.338;2023-05-22T07:08:25;99622.88;;;24.36;47.32
26859;BME280;14429;48.346;16.338;2023-05-22T07:10:51;99634.13;;;25.63;46.52
26859;BME280;14429;48.346;16.338;2023-05-22T07:13:17;99634.84;;;24.97;46.16
26859;BME280;14429;48.346;16.338;2023-05-22T07:15:42;99621.16;;;24.76;48.97
26859;BME280;14429;48.346;16.338;2023-05-22T07:18:08;99627.28;;;23.88;48.21
26859;BME280;14429;48.346;16.338;2023-05-22T07:20:33;99622.19;;;24.13;50.12
26859;BME280;14429;48.346;16.338;2023-05-22T07:22:58;99617.69;;;24.62;47.68
26859;BME280;14429;48.346;16.338;2023-05-22T07:25:24;99620.22;;;23.79;48.74
26859;BME280;14429;48.346;16.338;2023-05-22T07:27:51;99625.97;;;24.33;50.13
26859;BME280;14429;48.346;16.338;2023-05-22T07:30:16;99632.69;;;24.02;48.36
26859;BME280;14429;48.346;16.338;2023-05-22T07:32:41;99616.84;;;23.49;49.31
26859;BME280;14429;48.346;16.338;2023-05-22T07:35:08;99621.16;;;22.93;50.69
26859;BME280;14429;48.346;16.338;2023-05-22T07:37:33;99626.88;;;22.61;51.51
26859;BME280;14429;48.346;16.338;2023-05-22T07:39:58;99619.25;;;22.35;52.51
26859;BME280;14429;48.346;16.338;2023-05-22T07:42:24;99618.28;;;22.28;52.62
26859;BME280;14429;48.346;16.338;2023-05-22T07:44:50;99614.63;;;22.13;53.57
26859;BME280;14429;48.346;16.338;2023-05-22T07:47:16;99614.72;;;22.49;53.57
26859;BME280;14429;48.346;16.338;2023-05-22T07:49:41;99612.34;;;22.24;52.75
26859;BME280;14429;48.346;16.338;2023-05-22T07:52:07;99611.59;;;22.38;54.42
26859;BME280;14429;48.346;16.338;2023-05-22T07:54:32;99611.41;;;22.40;52.86
26859;BME280;14429;48.346;16.338;2023-05-22T07:56:58;99604.34;;;22.67;54.46
26859;BME280;14429;48.346;16.338;2023-05-22T07:59:23;99604.00;;;22.70;54.29
26859;BME280;14429;48.346;16.338;2023-05-22T08:01:50;99605.31;;;22.74;53.38
26859;BME280;14429;48.346;16.338;2023-05-22T08:04:15;99610.47;;;22.69;52.62
26859;BME280;14429;48.346;16.338;2023-05-22T08:06:41;99612.03;;;22.64;52.96
26859;BME280;14429;48.346;16.338;2023-05-22T08:09:06;99611.53;;;22.46;53.28
26859;BME280;14429;48.346;16.338;2023-05-22T08:11:31;99603.16;;;22.70;53.59
26859;BME280;14429;48.346;16.338;2023-05-22T08:13:57;99609.94;;;22.51;52.71
26859;BME280;14429;48.346;16.338;2023-05-22T08:16:22;99608.25;;;22.28;53.44
26859;BME280;14429;48.346;16.338;2023-05-22T08:18:49;99606.28;;;22.15;53.63
26859;BME280;14429;48.346;16.338;2023-05-22T08:21:14;99601.00;;;22.65;55.14
26859;BME280;14429;48.346;16.338;2023-05-22T08:23:40;99605.03;;;22.69;52.43
26859;BME280;14429;48.346;16.338;2023-05-22T08:26:05;99601.25;;;22.78;54.43
26859;BME280;14429;48.346;16.338;2023-05-22T08:28:31;99604.47;;;22.96;54.17
26859;BME280;14429;48.346;16.338;2023-05-22T08:30:56;99604.16;;;22.54;53.43
26859;BME280;14429;48.346;16.338;2023-05-22T08:33:22;99606.50;;;22.57;53.55
26859;BME280;14429;48.346;16.338;2023-05-22T08:35:51;99603.84;;;22.49;54.55
26859;BME280;14429;48.346;16.338;2023-05-22T08:38:16;99594.22;;;22.61;52.44
26859;BME280;14429;48.346;16.338;2023-05-22T08:40:46;99588.34;;;23.08;52.66
26859;BME280;14429;48.346;16.338;2023-05-22T08:43:12;99594.75;;;23.44;53.18
26859;BME280;14429;48.346;16.338;2023-05-22T08:45:37;99591.69;;;22.82;51.53
26859;BME280;14429;48.346;16.338;2023-05-22T08:48:03;99590.88;;;22.96;52.46
26859;BME280;14429;48.346;16.338;2023-05-22T08:50:29;99593.44;;;23.11;54.65
26859;BME280;14429;48.346;16.338;2023-05-22T08:52:59;99580.22;;;23.37;53.50
26859;BME280;14429;48.346;16.338;2023-05-22T08:55:25;99585.13;;;23.55;53.73
26859;BME280;14429;48.346;16.338;2023-05-22T08:57:52;99588.28;;;23.73;53.57
26859;BME280;14429;48.346;16.338;2023-05-22T09:00:20;99579.78;;;23.48;53.86
26859;BME280;14429;48.346;16.338;2023-05-22T09:02:46;99579.56;;;23.49;50.84
26859;BME280;14429;48.346;16.338;2023-05-22T09:05:11;99580.03;;;24.02;53.80
26859;BME280;14429;48.346;16.338;2023-05-22T09:07:37;99570.69;;;23.90;52.58
26859;BME280;14429;48.346;16.338;2023-05-22T09:10:05;99572.47;;;23.83;50.79
26859;BME280;14429;48.346;16.338;2023-05-22T09:12:30;99580.97;;;23.59;50.40
26859;BME280;14429;48.346;16.338;2023-05-22T09:14:56;99577.84;;;23.91;52.54
26859;BME280;14429;48.346;16.338;2023-05-22T09:17:27;99585.06;;;23.98;51.55
26859;BME280;14429;48.346;16.338;2023-05-22T09:19:52;99581.41;;;24.26;52.39
26859;BME280;14429;48.346;16.338;2023-05-22T09:22:18;99580.03;;;24.57;51.00
26859;BME280;14429;48.346;16.338;2023-05-22T09:24:44;99581.44;;;24.47;51.91
26859;BME280;14429;48.346;16.338;2023-05-22T09:27:11;99578.31;;;24.29;51.45
26859;BME280;14429;48.346;16.338;2023-05-22T09:29:46;99569.03;;;24.44;52.25
26859;BME280;14429;48.346;16.338;2023-05-22T09:32:12;99577.63;;;24.68;51.73
26859;BME280;14429;48.346;16.338;2023-05-22T09:34:37;99570.09;;;24.50;50.22
26859;BME280;14429;48.346;16.338;2023-05-22T09:37:04;99569.34;;;24.56;50.48
26859;BME280;14429;48.346;16.338;2023-05-22T09:39:37;99573.13;;;24.55;51.94
26859;BME280;14429;48.346;16.338;2023-05-22T09:42:03;99566.22;;;24.79;50.87
26859;BME280;14429;48.346;16.338;2023-05-22T09:44:30;99563.44;;;24.52;51.22
26859;BME280;14429;48.346;16.338;2023-05-22T09:46:56;99564.19;;;24.46;51.67
26859;BME280;14429;48.346;16.338;2023-05-22T09:49:21;99564.50;;;24.78;52.44
26859;BME280;14429;48.346;16.338;2023-05-22T09:51:48;99556.59;;;24.42;48.86
26859;BME280;14429;48.346;16.338;2023-05-22T09:54:18;99557.44;;;24.84;51.44
26859;BME280;14429;48.346;16.338;2023-05-22T09:56:47;99562.66;;;24.17;49.63
26859;BME280;14429;48.346;16.338;2023-05-22T09:59:16;99554.94;;;24.41;51.34
26859;BME280;14429;48.346;16.338;2023-05-22T10:01:45;99563.63;;;24.92;51.93
26859;BME280;14429;48.346;16.338;2023-05-22T10:04:12;99558.44;;;24.14;52.58
26859;BME280;14429;48.346;16.338;2023-05-22T10:06:39;99559.59;;;24.67;49.89
26859;BME280;14429;48.346;16.338;2023-05-22T10:09:08;99555.69;;;24.35;49.62
26859;BME280;14429;48.346;16.338;2023-05-22T10:11:39;99549.16;;;23.46;51.09
26859;BME280;14429;48.346;16.338;2023-05-22T10:14:05;99549.59;;;24.33;49.14
26859;BME280;14429;48.346;16.338;2023-05-22T10:16:32;99546.81;;;24.27;51.58
26859;BME280;14429;48.346;16.338;2023-05-22T10:19:01;99540.88;;;24.64;51.51
26859;BME280;14429;48.346;16.338;2023-05-22T10:21:28;99538.03;;;24.52;49.86
26859;BME280;14429;48.346;16.338;2023-05-22T10:23:54;99527.00;;;24.80;50.48
26859;BME280;14429;48.346;16.338;2023-05-22T10:26:20;99528.91;;;24.86;49.65
26859;BME280;14429;48.346;16.338;2023-05-22T10:28:51;99529.56;;;24.88;48.84
26859;BME280;14429;48.346;16.338;2023-05-22T10:31:26;99534.47;;;24.99;47.62
26859;BME280;14429;48.346;16.338;2023-05-22T10:33:58;99533.50;;;25.13;46.87
26859;BME280;14429;48.346;16.338;2023-05-22T10:36:36;99532.50;;;25.53;49.58
26859;BME280;14429;48.346;16.338;2023-05-22T10:39:14;99529.03;;;25.05;48.78
26859;BME280;14429;48.346;16.338;2023-05-22T10:41:47;99528.31;;;25.17;49.29
26859;BME280;14429;48.346;16.338;2023-05-22T10:44:12;99529.25;;;25.37;50.19
26859;BME280;14429;48.346;16.338;2023-05-22T10:46:38;99529.59;;;25.28;48.81
26859;BME280;14429;48.346;16.338;2023-05-22T10:49:03;99525.16;;;25.47;50.83
26859;BME280;14429;48.346;16.338;2023-05-22T10:51:31;99513.50;;;25.06;47.83
26859;BME280;14429;48.346;16.338;2023-05-22T10:53:57;99518.91;;;25.26;50.32
26859;BME280;14429;48.346;16.338;2023-05-22T10:56:31;99511.28;;;25.49;50.00
26859;BME280;14429;48.346;16.338;2023-05-22T10:58:59;99515.06;;;25.48;50.29
26859;BME280;14429;48.346;16.338;2023-05-22T11:01:25;99515.91;;;25.48;49.92
26859;BME280;14429;48.346;16.338;2023-05-22T11:03:55;99505.00;;;25.21;48.84
26859;BME280;14429;48.346;16.338;2023-05-22T11:06:38;99515.19;;;25.40;48.75
26859;BME280;14429;48.346;16.338;2023-05-22T11:09:19;99492.38;;;25.47;49.01
26859;BME280;14429;48.346;16.338;2023-05-22T11:11:45;99505.09;;;25.80;49.57
26859;BME280;14429;48.346;16.338;2023-05-22T11:14:11;99499.22;;;25.37;49.66
26859;BME280;14429;48.346;16.338;2023-05-22T11:16:37;99488.50;;;25.42;48.89
26859;BME280;14429;48.346;16.338;2023-05-22T11:19:05;99487.03;;;25.86;47.67
26859;BME280;14429;48.346;16.338;2023-05-22T11:21:34;99484.81;;;25.56;48.73
26859;BME280;14429;48.346;16.338;2023-05-22T11:24:01;99478.13;;;25.65;46.69
26859;BME280;14429;48.346;16.338;2023-05-22T11:26:26;99478.09;;;25.58;47.24
26859;BME280;14429;48.346;16.338;2023-05-22T11:28:51;99486.13;;;25.66;47.51
26859;BME280;14429;48.346;16.338;2023-05-22T11:31:18;99473.91;;;25.56;47.27
26859;BME280;14429;48.346;16.338;2023-05-22T11:33:44;99479.88;;;25.85;47.58
26859;BME280;14429;48.346;16.338;2023-05-22T11:36:10;99481.34;;;25.87;47.15
26859;BME280;14429;48.346;16.338;2023-05-22T11:38:37;99479.69;;;25.93;46.73
26859;BME280;14429;48.346;16.338;2023-05-22T11:41:07;99476.13;;;26.05;45.70
26859;BME280;14429;48.346;16.338;2023-05-22T11:43:32;99478.81;;;25.79;47.24
26859;BME280;14429;48.346;16.338;2023-05-22T11:45:59;99466.81;;;25.80;45.84
26859;BME280;14429;48.346;16.338;2023-05-22T11:48:25;99470.63;;;25.86;45.36
26859;BME280;14429;48.346;16.338;2023-05-22T11:50:50;99471.00;;;25.70;44.90
26859;BME280;14429;48.346;16.338;2023-05-22T11:53:17;99460.91;;;25.71;45.64
26859;BME280;14429;48.346;16.338;2023-05-22T11:55:43;99461.19;;;25.88;44.24
26859;BME280;14429;48.346;16.338;2023-05-22T11:58:09;99470.41;;;25.87;45.34
26859;BME280;14429;48.346;16.338;2023-05-22T12:00:35;99467.25;;;25.77;44.68
26859;BME280;14429;48.346;16.338;2023-05-22T12:03:01;99462.44;;;25.92;44.70
26859;BME280;14429;48.346;16.338;2023-05-22T12:05:26;99467.16;;;25.52;45.17
26859;BME280;14429;48.346;16.338;2023-05-22T12:07:51;99466.78;;;25.68;44.14
26859;BME280;14429;48.346;16.338;2023-05-22T12:10:17;99469.34;;;25.75;43.51
26859;BME280;14429;48.346;16.338;2023-05-22T12:12:43;99451.50;;;25.40;45.31
26859;BME280;14429;48.346;16.338;2023-05-22T12:15:10;99463.66;;;25.71;44.98
26859;BME280;14429;48.346;16.338;2023-05-22T12:17:36;99455.47;;;25.83;45.17
26859;BME280;14429;48.346;16.338;2023-05-22T12:20:02;99454.25;;;25.92;41.67
26859;BME280;14429;48.346;16.338;2023-05-22T12:22:28;99462.09;;;25.49;44.52
26859;BME280;14429;48.346;16.338;2023-05-22T12:24:53;99455.81;;;25.55;43.48
26859;BME280;14429;48.346;16.338;2023-05-22T12:27:18;99449.03;;;26.10;42.96
26859;BME280;14429;48.346;16.338;2023-05-22T12:29:44;99450.06;;;25.96;42.12
26859;BME280;14429;48.346;16.338;2023-05-22T12:32:11;99459.13;;;26.09;42.81
26859;BME280;14429;48.346;16.338;2023-05-22T12:34:42;99459.34;;;26.08;41.29
26859;BME280;14429;48.346;16.338;2023-05-22T12:37:17;99458.28;;;26.09;39.82
26859;BME280;14429;48.346;16.338;2023-05-22T12:39:52;99459.34;;;26.08;40.38
26859;BME280;14429;48.346;16.338;2023-05-22T12:42:17;99458.13;;;26.29;40.71
26859;BME280;14429;48.346;16.338;2023-05-22T12:44:44;99451.31;;;26.00;42.52
26859;BME280;14429;48.346;16.338;2023-05-22T12:47:11;99457.66;;;26.13;41.14
26859;BME280;14429;48.346;16.338;2023-05-22T12:49:36;99450.88;;;25.90;41.93
26859;BME280;14429;48.346;16.338;2023-05-22T12:52:02;99451.78;;;26.35;42.30